Terminal Aerodrome Forecast
Issued by NWS Wakefield, VA

Home | Current Version | Previous Version | Text Only | Print | Product List | Glossary On
Versions: 1 2 3 4 5 6 7 8 9 10 11 12 13 14 15 16 17 18 19
000
FTUS41 KAKQ 301152
TAFORF
TAF
KORF 301152Z 3012/3112 18006KT 5SM -RA BR BKN050 OVC110
     FM301400 06006KT 5SM -RA BR SCT007 OVC025
     FM301700 05008KT 5SM -RA BR OVC007
     FM310000 05005KT 4SM BR OVC007
     FM310400 03003KT 4SM BR OVC007=

USA.gov is the U.S. government's official web portal to all federal, state and local government web resources and services.